Time;durP1;ratioP1;P1;durP2;ratioP2;P2;SDS_P1;SDS_P2;PMS_P1;PMS_P2;Temp;Humidity;BMP_temperature;BMP_pressure;BME280_temperature;BME280_humidity;BME280_pressure;Samples;Min_cycle;Max_cycle;Signal;HPM_P1;HPM_P2
2023/03/28 00:01:38;;;;;;;9.95;1.70;;;4.60;99.90;;;;;;4989079;28;20457;-77
2023/03/28 00:04:03;;;;;;;13.57;2.30;;;4.60;99.90;;;;;;5004693;28;20500;-77
2023/03/28 00:06:30;;;;;;;13.50;1.92;;;4.60;99.90;;;;;;4988263;28;20566;-77
2023/03/28 00:08:56;;;;;;;14.43;1.90;;;4.50;99.90;;;;;;4998007;28;20929;-77
2023/03/28 00:11:23;;;;;;;12.98;1.90;;;4.50;99.90;;;;;;4998145;28;20746;-77
2023/03/28 00:13:59;;;;;;;13.75;1.85;;;4.50;99.90;;;;;;5005989;28;20405;-77
2023/03/28 00:16:30;;;;;;;12.27;1.73;;;4.40;99.90;;;;;;5007384;28;20416;-77
2023/03/28 00:19:01;;;;;;;12.82;1.80;;;4.40;99.90;;;;;;5000488;28;20794;-77
2023/03/28 00:21:29;;;;;;;16.20;2.35;;;4.30;99.90;;;;;;4984880;28;20933;-77
2023/03/28 00:24:01;;;;;;;12.98;2.05;;;4.20;99.90;;;;;;5005658;28;20420;-77
2023/03/28 00:26:29;;;;;;;14.68;2.08;;;4.20;99.90;;;;;;5005583;28;20409;-77
2023/03/28 00:28:55;;;;;;;15.13;2.58;;;4.20;99.90;;;;;;4991003;28;20500;-77
2023/03/28 00:31:22;;;;;;;13.70;2.30;;;4.20;99.90;;;;;;5004843;28;20753;-77
2023/03/28 00:33:48;;;;;;;12.85;2.35;;;4.20;99.90;;;;;;4991900;28;20411;-77
2023/03/28 00:36:21;;;;;;;10.80;1.70;;;4.20;99.90;;;;;;5012679;28;21008;-77
2023/03/28 00:38:48;;;;;;;13.00;2.37;;;4.20;99.90;;;;;;5003877;28;20421;-77
2023/03/28 00:41:17;;;;;;;14.03;2.00;;;4.20;99.90;;;;;;5005611;28;20445;-77
2023/03/28 00:43:45;;;;;;;15.70;2.15;;;4.20;99.90;;;;;;5005251;28;20466;-77
2023/03/28 00:46:34;;;;;;;13.68;1.95;;;4.20;99.90;;;;;;5005358;28;20415;-77
2023/03/28 00:49:20;;;;;;;12.88;1.95;;;4.20;99.90;;;;;;5004004;28;20925;-77
2023/03/28 00:51:55;;;;;;;16.73;2.22;;;4.20;99.90;;;;;;5005014;28;20409;-77
2023/03/28 00:54:24;;;;;;;16.23;2.10;;;4.10;99.90;;;;;;4991952;28;20442;-77
2023/03/28 00:56:56;;;;;;;15.25;3.03;;;4.20;99.90;;;;;;5005303;28;20986;-77
2023/03/28 00:59:25;;;;;;;12.55;1.98;;;4.10;99.90;;;;;;5005251;28;20757;-77
2023/03/28 01:01:53;;;;;;;15.27;2.47;;;4.10;99.90;;;;;;5005245;28;20405;-77
2023/03/28 01:04:23;;;;;;;13.53;1.90;;;4.10;99.90;;;;;;5005050;28;20566;-77
2023/03/28 01:06:53;;;;;;;13.52;1.98;;;4.10;99.90;;;;;;5004050;28;20492;-77
2023/03/28 01:09:20;;;;;;;14.10;2.08;;;4.10;99.90;;;;;;5004296;28;20413;-77
2023/03/28 01:11:46;;;;;;;11.57;2.00;;;4.10;99.90;;;;;;5004005;28;20931;-77
2023/03/28 01:14:16;;;;;;;13.48;2.33;;;4.10;99.90;;;;;;5003645;28;20950;-77
2023/03/28 01:16:46;;;;;;;14.30;2.47;;;4.10;99.90;;;;;;5004638;28;20931;-77
2023/03/28 01:19:35;;;;;;;14.43;2.00;;;4.00;99.90;;;;;;4993497;28;20450;-77
2023/03/28 01:22:42;;;;;;;14.52;2.13;;;4.00;99.90;;;;;;5006040;28;20433;-77
2023/03/28 01:25:23;;;;;;;11.73;2.10;;;4.00;99.90;;;;;;5006435;28;20923;-77
2023/03/28 01:28:01;;;;;;;11.65;2.00;;;4.00;99.90;;;;;;4998019;28;20921;-77
2023/03/28 01:31:03;;;;;;;12.68;2.30;;;4.00;99.90;;;;;;5007515;28;20452;-77
2023/03/28 01:33:46;;;;;;;14.55;1.85;;;4.00;99.90;;;;;;5008997;28;20573;-77
2023/03/28 01:36:33;;;;;;;12.38;1.80;;;4.00;99.90;;;;;;5009126;28;20964;-77
2023/03/28 01:39:19;;;;;;;15.02;1.95;;;4.00;99.90;;;;;;4998748;28;20444;-78
2023/03/28 01:42:03;;;;;;;11.27;1.70;;;4.00;99.90;;;;;;5009232;28;20417;-77
2023/03/28 01:45:04;;;;;;;11.98;1.90;;;4.00;99.90;;;;;;5008777;28;20513;-77
2023/03/28 01:47:47;;;;;;;14.95;2.00;;;3.90;99.90;;;;;;5091143;28;20828;-77
2023/03/28 01:50:30;;;;;;;12.43;1.90;;;3.90;99.90;;;;;;4996399;28;20409;-77
2023/03/28 01:53:19;;;;;;;9.45;2.22;;;3.80;99.90;;;;;;5010201;28;20447;-77
2023/03/28 01:55:53;;;;;;;12.00;1.85;;;3.80;99.90;;;;;;4991517;28;20928;-77
2023/03/28 01:58:28;;;;;;;14.15;1.85;;;3.80;99.90;;;;;;5007473;28;20508;-78
2023/03/28 02:01:19;;;;;;;14.57;1.83;;;3.70;99.90;;;;;;4992224;28;20437;-77
2023/03/28 02:03:55;;;;;;;13.07;2.08;;;3.70;99.90;;;;;;5007555;28;20419;-77
2023/03/28 02:06:23;;;;;;;15.48;1.83;;;3.70;99.90;;;;;;5006956;28;20474;-77
2023/03/28 02:08:52;;;;;;;9.23;1.47;;;3.60;99.90;;;;;;5010422;28;20746;-77
2023/03/28 02:11:18;;;;;;;10.13;1.80;;;3.60;99.90;;;;;;5009976;28;20417;-77
2023/03/28 02:13:54;;;;;;;10.85;2.17;;;3.50;99.90;;;;;;5006220;28;20951;-77
2023/03/28 02:16:22;;;;;;;13.80;1.88;;;3.50;99.90;;;;;;5009452;28;20500;-77
2023/03/28 02:18:53;;;;;;;10.68;1.42;;;3.50;99.90;;;;;;5011650;28;20996;-77
2023/03/28 02:21:26;;;;;;;10.32;1.75;;;3.50;99.90;;;;;;5007588;28;20432;-77
2023/03/28 02:23:53;;;;;;;12.88;1.92;;;3.40;99.90;;;;;;5007159;28;20407;-77
2023/03/28 02:26:21;;;;;;;12.90;1.98;;;3.40;99.90;;;;;;5007817;28;20412;-77
2023/03/28 02:28:51;;;;;;;10.07;1.55;;;3.40;99.90;;;;;;4994724;28;20421;-77
2023/03/28 02:31:18;;;;;;;11.75;1.90;;;3.30;99.90;;;;;;5006009;28;20516;-78
2023/03/28 02:33:46;;;;;;;10.80;1.90;;;3.30;99.90;;;;;;5007286;28;20413;-78
2023/03/28 02:36:39;;;;;;;9.70;1.50;;;3.20;99.90;;;;;;5005574;28;20427;-77
2023/03/28 02:39:31;;;;;;;11.27;1.88;;;3.20;99.90;;;;;;5006541;28;20421;-77
2023/03/28 02:42:21;;;;;;;15.20;2.03;;;3.10;99.90;;;;;;5029297;28;20784;-77
2023/03/28 02:44:50;;;;;;;10.95;1.55;;;3.00;99.90;;;;;;5005491;28;20516;-77
2023/03/28 02:47:28;;;;;;;12.20;2.00;;;3.00;99.90;;;;;;5006050;28;20433;-78
2023/03/28 02:50:26;;;;;;;7.75;1.50;;;3.00;99.90;;;;;;5005875;28;20421;-77
2023/03/28 02:53:25;;;;;;;14.03;2.10;;;2.90;99.90;;;;;;5006183;28;20944;-76
2023/03/28 02:56:25;;;;;;;9.48;1.60;;;2.90;99.90;;;;;;5031516;28;20450;-76
2023/03/28 02:59:03;;;;;;;9.38;1.52;;;2.90;99.90;;;;;;5012969;28;20920;-77
2023/03/28 03:01:29;;;;;;;9.80;1.63;;;2.80;99.90;;;;;;5005811;28;20441;-77
2023/03/28 03:03:56;;;;;;;10.73;1.60;;;2.80;99.90;;;;;;5004954;28;20420;-76
2023/03/28 03:06:21;;;;;;;14.02;1.67;;;2.80;99.90;;;;;;5007246;28;20405;-76
2023/03/28 03:08:47;;;;;;;9.38;1.60;;;2.70;99.90;;;;;;5006417;28;20413;-77
2023/03/28 03:11:13;;;;;;;11.10;1.80;;;2.80;99.90;;;;;;5006089;28;20427;-77
2023/03/28 03:13:38;;;;;;;10.50;1.80;;;2.70;99.90;;;;;;5062821;28;20464;-76
2023/03/28 03:16:04;;;;;;;11.40;1.80;;;2.70;99.90;;;;;;5006396;28;20406;-76
2023/03/28 03:18:31;;;;;;;12.60;1.52;;;2.70;99.90;;;;;;5007972;28;20409;-76
2023/03/28 03:21:00;;;;;;;10.18;1.48;;;2.70;99.90;;;;;;5006151;28;20549;-76
2023/03/28 03:23:26;;;;;;;15.77;2.08;;;2.70;99.90;;;;;;5006953;28;20420;-77
2023/03/28 03:25:52;;;;;;;10.23;1.87;;;2.70;99.90;;;;;;4995818;28;20462;-77
2023/03/28 03:28:17;;;;;;;11.87;2.00;;;2.70;99.90;;;;;;4994406;28;20415;-77
2023/03/28 03:30:43;;;;;;;10.65;1.98;;;2.70;99.90;;;;;;5006489;28;20417;-77
2023/03/28 03:33:10;;;;;;;10.18;1.60;;;2.70;99.90;;;;;;5004922;28;20412;-77
2023/03/28 03:35:36;;;;;;;10.63;1.60;;;2.60;99.90;;;;;;5005230;28;20450;-77
2023/03/28 03:38:02;;;;;;;9.60;1.43;;;2.60;99.90;;;;;;5006670;28;20444;-77
2023/03/28 03:40:28;;;;;;;12.40;1.95;;;2.60;99.90;;;;;;5005411;28;20502;-76
2023/03/28 03:42:54;;;;;;;11.37;1.50;;;2.60;99.90;;;;;;5005251;28;20428;-77
2023/03/28 03:45:20;;;;;;;11.15;1.40;;;2.60;99.90;;;;;;5005305;28;20412;-76
2023/03/28 03:47:46;;;;;;;14.43;1.83;;;2.60;99.90;;;;;;5004815;28;20449;-76
2023/03/28 03:50:12;;;;;;;10.17;1.60;;;2.60;99.90;;;;;;5005358;28;20412;-77
2023/03/28 03:52:38;;;;;;;9.70;1.60;;;2.50;99.90;;;;;;5006038;28;20413;-77
2023/03/28 03:55:05;;;;;;;11.90;1.77;;;2.50;99.90;;;;;;5013872;28;20464;-76
2023/03/28 03:57:31;;;;;;;9.38;1.20;;;2.50;99.90;;;;;;5010833;28;20416;-76
2023/03/28 03:59:56;;;;;;;10.60;1.25;;;2.50;99.90;;;;;;5005203;28;20449;-76
2023/03/28 04:02:22;;;;;;;10.57;1.70;;;2.50;99.90;;;;;;5005002;28;20446;-76
2023/03/28 04:04:48;;;;;;;8.40;1.20;;;2.40;99.90;;;;;;5007079;28;20508;-76
2023/03/28 04:07:14;;;;;;;10.73;1.40;;;2.40;99.90;;;;;;5005467;28;20417;-76
2023/03/28 04:09:40;;;;;;;8.75;1.48;;;2.40;99.90;;;;;;5006009;28;20964;-77
2023/03/28 04:12:06;;;;;;;11.23;1.55;;;2.30;99.90;;;;;;5006476;28;20421;-77
2023/03/28 04:14:32;;;;;;;9.20;1.38;;;2.30;99.90;;;;;;5005908;28;20788;-77
2023/03/28 04:16:57;;;;;;;9.30;1.48;;;2.30;99.90;;;;;;5006201;28;20427;-77
2023/03/28 04:19:24;;;;;;;6.50;1.10;;;2.30;99.90;;;;;;5006385;28;20397;-77
2023/03/28 04:21:51;;;;;;;11.95;1.83;;;2.30;99.90;;;;;;5005466;28;20409;-77
2023/03/28 04:24:23;;;;;;;10.30;1.25;;;2.20;99.90;;;;;;4996139;28;20456;-77
2023/03/28 04:26:49;;;;;;;8.60;1.33;;;2.20;99.90;;;;;;5006493;28;20416;-77
2023/03/28 04:29:16;;;;;;;7.18;1.23;;;2.20;99.90;;;;;;5005805;28;20417;-76
2023/03/28 04:31:48;;;;;;;9.43;1.80;;;2.10;99.90;;;;;;5005631;28;20413;-77
2023/03/28 04:34:15;;;;;;;11.20;1.45;;;2.10;99.90;;;;;;4988715;28;20440;-77
2023/03/28 04:36:42;;;;;;;7.53;1.33;;;2.10;99.90;;;;;;5005270;28;20420;-77
2023/03/28 04:39:08;;;;;;;10.18;1.67;;;2.10;99.90;;;;;;5005714;28;20409;-77
2023/03/28 04:41:34;;;;;;;9.00;1.58;;;2.00;99.90;;;;;;5003364;28;20452;-75
2023/03/28 04:44:00;;;;;;;11.25;1.80;;;2.00;99.90;;;;;;5004233;28;20437;-75
2023/03/28 04:46:28;;;;;;;8.40;1.38;;;2.00;99.90;;;;;;5001729;28;20430;-75
2023/03/28 04:48:54;;;;;;;10.38;1.27;;;1.90;99.90;;;;;;5014853;28;20423;-76
2023/03/28 04:51:20;;;;;;;10.30;1.27;;;1.90;99.90;;;;;;5006396;28;20471;-76
2023/03/28 04:53:45;;;;;;;8.38;1.85;;;1.90;99.90;;;;;;5024473;28;20411;-76
2023/03/28 04:56:13;;;;;;;10.10;1.47;;;1.90;99.90;;;;;;5010707;28;20488;-76
2023/03/28 04:58:40;;;;;;;10.52;1.55;;;1.90;99.90;;;;;;5024193;28;20475;-76
2023/03/28 05:01:09;;;;;;;9.65;1.55;;;1.90;99.90;;;;;;5026232;28;20862;-76
2023/03/28 05:03:36;;;;;;;9.50;1.95;;;1.90;99.90;;;;;;5026404;28;20419;-76
2023/03/28 05:06:02;;;;;;;7.28;1.40;;;1.90;99.90;;;;;;5019944;28;20496;-76
2023/03/28 05:08:28;;;;;;;13.88;1.83;;;1.90;99.90;;;;;;5007681;28;20432;-77
2023/03/28 05:10:54;;;;;;;11.23;1.50;;;1.90;99.90;;;;;;5009107;28;20409;-77
2023/03/28 05:13:20;;;;;;;10.32;1.30;;;1.90;99.90;;;;;;5007694;28;20417;-77
2023/03/28 05:15:47;;;;;;;10.05;1.80;;;1.90;99.90;;;;;;5007659;28;20418;-77
2023/03/28 05:18:14;;;;;;;9.35;1.13;;;1.90;99.90;;;;;;5008860;28;20772;-77
2023/03/28 05:20:40;;;;;;;9.70;1.50;;;1.90;99.90;;;;;;5091906;28;20441;-77
2023/03/28 05:23:06;;;;;;;12.00;1.67;;;1.80;99.90;;;;;;5010266;28;20761;-77
2023/03/28 05:25:32;;;;;;;10.75;1.45;;;1.80;99.90;;;;;;5009525;28;20538;-77
2023/03/28 05:27:58;;;;;;;8.13;1.60;;;1.80;99.90;;;;;;5006789;28;20417;-76
2023/03/28 05:30:24;;;;;;;11.45;1.60;;;1.80;99.90;;;;;;5008578;28;20417;-77
2023/03/28 05:32:50;;;;;;;9.45;1.40;;;1.80;99.90;;;;;;5008720;28;20773;-76
2023/03/28 05:35:16;;;;;;;12.38;1.63;;;1.80;99.90;;;;;;5007144;28;20836;-76
2023/03/28 05:37:42;;;;;;;12.32;1.80;;;1.80;99.90;;;;;;5008155;28;20419;-76
2023/03/28 05:40:10;;;;;;;8.48;1.30;;;1.70;99.90;;;;;;5007677;28;20792;-76
2023/03/28 05:42:37;;;;;;;10.13;1.60;;;1.70;99.90;;;;;;5007595;28;20425;-76
2023/03/28 05:45:04;;;;;;;11.70;2.00;;;1.70;99.90;;;;;;5007393;28;20814;-77
2023/03/28 05:47:30;;;;;;;12.37;1.90;;;1.70;99.90;;;;;;4990435;28;20424;-76
2023/03/28 05:49:56;;;;;;;10.20;1.43;;;1.80;99.90;;;;;;5007349;28;20792;-76
2023/03/28 05:52:22;;;;;;;12.70;1.58;;;1.70;99.90;;;;;;5008868;28;20524;-76
2023/03/28 05:54:48;;;;;;;11.55;1.63;;;1.70;99.90;;;;;;5007103;28;20991;-76
2023/03/28 05:57:13;;;;;;;12.32;1.77;;;1.70;99.90;;;;;;5007305;28;20757;-76
2023/03/28 05:59:42;;;;;;;10.87;1.83;;;1.80;99.90;;;;;;5009937;28;20433;-76
2023/03/28 06:02:16;;;;;;;14.57;1.50;;;1.80;99.90;;;;;;5009830;28;20409;-76
2023/03/28 06:04:43;;;;;;;10.70;1.92;;;1.80;99.90;;;;;;5006755;28;20416;-76
2023/03/28 06:07:10;;;;;;;14.05;1.83;;;1.80;99.90;;;;;;5009478;28;20592;-76
2023/03/28 06:09:36;;;;;;;11.77;1.57;;;1.90;99.90;;;;;;5008164;28;20413;-77
2023/03/28 06:12:04;;;;;;;9.37;1.70;;;1.90;99.90;;;;;;5009418;28;21168;-76
2023/03/28 06:14:30;;;;;;;12.68;1.92;;;1.90;99.90;;;;;;5008812;28;20966;-77
2023/03/28 06:16:56;;;;;;;10.75;2.10;;;2.00;99.90;;;;;;4992314;28;20409;-77
2023/03/28 06:19:22;;;;;;;13.87;1.80;;;2.00;99.90;;;;;;5007433;28;20505;-76
2023/03/28 06:21:48;;;;;;;10.53;1.90;;;2.10;99.90;;;;;;5009442;28;20440;-77
2023/03/28 06:24:13;;;;;;;11.15;1.70;;;2.10;99.90;;;;;;5006392;28;20408;-77
2023/03/28 06:26:39;;;;;;;9.97;1.90;;;2.20;99.90;;;;;;5006103;28;20419;-77
2023/03/28 06:29:05;;;;;;;10.00;1.73;;;2.30;99.90;;;;;;4994420;28;20756;-77
2023/03/28 06:31:31;;;;;;;12.98;2.10;;;2.30;99.90;;;;;;5006953;28;20415;-77
2023/03/28 06:33:57;;;;;;;13.02;2.22;;;2.40;99.90;;;;;;5007908;28;20413;-77
2023/03/28 06:36:23;;;;;;;11.97;1.97;;;2.50;99.90;;;;;;5007001;28;20413;-77
2023/03/28 06:38:49;;;;;;;12.85;1.80;;;2.50;99.90;;;;;;4995262;28;20421;-77
2023/03/28 06:41:15;;;;;;;14.13;1.92;;;2.60;99.90;;;;;;4991304;28;20524;-77
2023/03/28 06:43:41;;;;;;;14.82;2.28;;;2.70;99.90;;;;;;4996296;28;20409;-79
2023/03/28 06:46:08;;;;;;;8.57;1.47;;;2.80;99.90;;;;;;5008082;28;20400;-78
2023/03/28 06:48:34;;;;;;;13.45;1.98;;;3.00;99.90;;;;;;4995902;28;20419;-79
2023/03/28 06:51:00;;;;;;;11.70;2.00;;;3.10;99.90;;;;;;5006920;28;20882;-79
2023/03/28 06:53:26;;;;;;;11.13;1.90;;;3.20;99.90;;;;;;4994317;28;20413;-78
2023/03/28 06:55:52;;;;;;;11.55;1.85;;;3.40;99.90;;;;;;5005712;28;20417;-78
2023/03/28 06:58:20;;;;;;;9.80;1.77;;;3.50;99.90;;;;;;5007178;28;20533;-76
2023/03/28 07:00:46;;;;;;;10.60;1.90;;;3.60;99.90;;;;;;5006777;28;20441;-75
2023/03/28 07:03:12;;;;;;;11.32;2.58;;;3.70;99.90;;;;;;5007510;28;20474;-76
2023/03/28 07:05:39;;;;;;;14.30;1.95;;;3.70;99.90;;;;;;5005958;28;20462;-76
2023/03/28 07:08:07;;;;;;;12.17;2.20;;;3.80;99.90;;;;;;5007205;28;20470;-78
2023/03/28 07:10:33;;;;;;;9.95;1.63;;;4.00;99.90;;;;;;5006353;28;20414;-77
2023/03/28 07:12:58;;;;;;;9.48;2.03;;;4.10;99.90;;;;;;5006145;28;20826;-77
2023/03/28 07:15:24;;;;;;;9.20;1.67;;;4.20;99.90;;;;;;5006984;28;20409;-77
2023/03/28 07:17:50;;;;;;;10.33;2.00;;;4.20;99.90;;;;;;5008091;28;20413;-77
2023/03/28 07:20:15;;;;;;;8.00;2.05;;;4.30;99.90;;;;;;5007620;28;20449;-77
2023/03/28 07:22:41;;;;;;;13.38;1.88;;;4.40;99.90;;;;;;5007211;28;20449;-77
2023/03/28 07:25:07;;;;;;;11.57;2.00;;;4.50;99.90;;;;;;5006116;28;20420;-77
2023/03/28 07:27:33;;;;;;;8.95;1.77;;;4.50;99.90;;;;;;5014693;28;20805;-77
2023/03/28 07:29:58;;;;;;;10.73;2.10;;;4.60;99.90;;;;;;5011392;28;20416;-77
2023/03/28 07:32:24;;;;;;;12.13;2.20;;;4.60;99.90;;;;;;5006696;28;20473;-76
2023/03/28 07:34:50;;;;;;;10.82;1.85;;;4.60;99.90;;;;;;5004759;28;20478;-77
2023/03/28 07:37:16;;;;;;;10.10;2.60;;;4.70;99.90;;;;;;5006474;28;20818;-76
2023/03/28 07:39:42;;;;;;;10.63;2.35;;;4.70;99.90;;;;;;5006449;28;20437;-77
2023/03/28 07:42:12;;;;;;;8.23;1.98;;;4.80;99.90;;;;;;4996529;28;20417;-77
2023/03/28 07:44:38;;;;;;;9.73;1.95;;;4.80;99.90;;;;;;5007300;28;20415;-77
2023/03/28 07:47:04;;;;;;;13.35;2.00;;;4.90;99.90;;;;;;5005850;28;20417;-77
2023/03/28 07:49:31;;;;;;;11.05;2.22;;;4.90;99.90;;;;;;4988576;28;20780;-77
2023/03/28 07:51:57;;;;;;;9.50;1.80;;;4.90;99.90;;;;;;5007216;28;20420;-77
2023/03/28 07:54:23;;;;;;;10.57;2.03;;;4.90;99.90;;;;;;5007421;28;20772;-77
2023/03/28 07:56:49;;;;;;;10.90;1.98;;;5.00;99.90;;;;;;4994917;28;20420;-77
2023/03/28 07:59:15;;;;;;;13.32;2.40;;;5.00;99.90;;;;;;5007557;28;20419;-77
2023/03/28 08:01:42;;;;;;;9.88;1.90;;;5.00;99.90;;;;;;4996164;28;20467;-77
2023/03/28 08:04:10;;;;;;;11.00;2.50;;;5.10;99.90;;;;;;5005807;28;20415;-77
2023/03/28 08:06:37;;;;;;;10.68;1.85;;;5.00;99.90;;;;;;4988621;28;20920;-77
2023/03/28 08:09:14;;;;;;;10.88;1.50;;;4.90;99.90;;;;;;5004667;28;20442;-77
2023/03/28 08:11:42;;;;;;;11.13;2.15;;;4.90;99.90;;;;;;5005138;28;20499;-77
2023/03/28 08:14:11;;;;;;;7.77;1.70;;;5.00;99.90;;;;;;5005281;28;20413;-77
2023/03/28 08:16:37;;;;;;;10.15;1.70;;;5.00;99.90;;;;;;5005023;28;20492;-77
2023/03/28 08:19:03;;;;;;;7.63;1.50;;;5.10;99.90;;;;;;5006082;28;20431;-77
2023/03/28 08:21:34;;;;;;;12.38;2.20;;;5.20;99.90;;;;;;5005791;28;20489;-77
2023/03/28 08:24:01;;;;;;;9.25;1.50;;;5.30;99.90;;;;;;5005682;28;20745;-77
2023/03/28 08:26:27;;;;;;;9.10;1.70;;;5.40;99.90;;;;;;5006296;28;20813;-77
2023/03/28 08:28:53;;;;;;;11.23;1.70;;;5.50;99.90;;;;;;5005652;28;20425;-77
2023/03/28 08:31:24;;;;;;;7.18;1.25;;;5.60;99.90;;;;;;5004475;28;20401;-77
2023/03/28 08:33:52;;;;;;;9.02;1.75;;;5.70;99.90;;;;;;5004559;28;20825;-77
2023/03/28 08:36:19;;;;;;;9.25;1.52;;;5.80;99.90;;;;;;5004884;28;20435;-77
2023/03/28 08:38:48;;;;;;;6.82;1.00;;;6.00;99.90;;;;;;4987855;28;20429;-76
2023/03/28 08:41:45;;;;;;;8.10;1.13;;;6.20;99.90;;;;;;5005896;28;20867;-77
2023/03/28 08:44:45;;;;;;;10.20;1.40;;;6.40;99.90;;;;;;5004722;28;20413;-77
2023/03/28 08:47:35;;;;;;;4.10;0.80;;;6.60;99.90;;;;;;4978135;28;20428;-77
2023/03/28 08:50:07;;;;;;;4.68;0.60;;;6.90;99.90;;;;;;5004545;28;20473;-77
2023/03/28 08:52:33;;;;;;;6.05;0.85;;;7.10;99.90;;;;;;4988719;28;20449;-77
2023/03/28 08:55:05;;;;;;;7.35;1.15;;;7.30;99.90;;;;;;5004403;28;20424;-77
2023/03/28 08:57:33;;;;;;;5.20;1.47;;;7.40;99.90;;;;;;5005917;28;20768;-77
2023/03/28 09:00:14;;;;;;;5.38;0.75;;;7.40;99.90;;;;;;5005728;28;20500;-77
2023/03/28 09:02:41;;;;;;;5.30;0.75;;;7.50;99.90;;;;;;5004716;28;20440;-77
2023/03/28 09:05:15;;;;;;;3.38;0.60;;;7.50;99.90;;;;;;5005344;28;20413;-77
2023/03/28 09:08:13;;;;;;;6.30;1.10;;;7.50;99.90;;;;;;5004192;28;20912;-77
2023/03/28 09:10:44;;;;;;;3.53;0.80;;;7.50;99.90;;;;;;5039868;28;21880;-77
2023/03/28 09:13:28;;;;;;;5.60;0.93;;;7.50;99.90;;;;;;5004550;28;20417;-77
2023/03/28 09:16:31;;;;;;;4.97;0.70;;;7.50;99.90;;;;;;5004871;28;20826;-77
2023/03/28 09:19:16;;;;;;;4.28;0.52;;;7.50;99.90;;;;;;5003334;28;20421;-77
2023/03/28 09:22:09;;;;;;;4.60;0.60;;;7.50;99.90;;;;;;5004278;28;20437;-77
2023/03/28 09:24:40;;;;;;;6.63;1.00;;;7.60;99.90;;;;;;4995683;28;20429;-77
2023/03/28 09:27:32;;;;;;;5.45;0.70;;;7.80;99.90;;;;;;5003283;28;20419;-77
2023/03/28 09:30:19;;;;;;;4.67;0.60;;;8.30;99.90;;;;;;5003797;28;20916;-77
2023/03/28 09:32:45;;;;;;;6.32;0.68;;;8.70;99.90;;;;;;5058535;28;20419;-77
2023/03/28 09:35:21;;;;;;;6.25;0.70;;;8.50;99.90;;;;;;5014863;28;20409;-77
2023/03/28 09:37:53;;;;;;;5.40;0.80;;;8.30;99.90;;;;;;5004107;28;20421;-77
2023/03/28 09:40:27;;;;;;;5.05;1.15;;;8.20;99.90;;;;;;5003365;28;20447;-77
2023/03/28 09:43:01;;;;;;;6.00;0.75;;;8.00;99.90;;;;;;5002808;28;20425;-77
2023/03/28 09:45:49;;;;;;;3.00;0.60;;;8.00;99.90;;;;;;5004659;28;20974;-76
2023/03/28 09:48:36;;;;;;;4.30;0.57;;;7.90;99.90;;;;;;5008126;28;20413;-78
2023/03/28 09:51:04;;;;;;;3.80;0.63;;;7.80;99.90;;;;;;5006598;28;20417;-77
2023/03/28 09:53:35;;;;;;;5.17;0.60;;;7.80;99.90;;;;;;5008280;28;20408;-77
2023/03/28 09:56:25;;;;;;;3.78;0.40;;;7.80;99.90;;;;;;5007026;28;20503;-77
2023/03/28 09:58:56;;;;;;;3.95;0.40;;;7.70;99.90;;;;;;5007903;28;20421;-77
2023/03/28 10:01:38;;;;;;;5.10;0.50;;;7.70;99.90;;;;;;5008901;28;20528;-77
2023/03/28 10:04:10;;;;;;;3.17;0.50;;;7.70;99.90;;;;;;5007965;28;20948;-78
2023/03/28 10:06:39;;;;;;;2.33;0.32;;;7.70;99.90;;;;;;5006213;28;20420;-77
2023/03/28 10:09:23;;;;;;;4.88;0.63;;;7.80;99.90;;;;;;5006628;28;20421;-77
2023/03/28 10:11:56;;;;;;;5.17;1.00;;;7.80;99.90;;;;;;5008327;28;20413;-78
2023/03/28 10:14:48;;;;;;;6.45;0.70;;;8.00;99.90;;;;;;5007494;28;20416;-77
2023/03/28 10:17:29;;;;;;;3.42;0.50;;;8.30;99.90;;;;;;5008890;28;20414;-78
2023/03/28 10:20:16;;;;;;;5.15;0.70;;;9.00;99.90;;;;;;5006249;28;20546;-78
2023/03/28 10:22:45;;;;;;;4.55;0.70;;;10.00;99.90;;;;;;4989012;28;20452;-78
2023/03/28 10:25:21;;;;;;;4.18;0.50;;;10.50;99.20;;;;;;5007965;28;20484;-78
2023/03/28 10:27:48;;;;;;;2.80;0.63;;;10.70;96.30;;;;;;4998383;28;20413;-78
2023/03/28 10:30:17;;;;;;;5.65;0.70;;;10.70;96.20;;;;;;5006196;28;20420;-78
2023/03/28 10:32:42;;;;;;;4.10;0.77;;;10.40;94.90;;;;;;5006423;28;20445;-78
2023/03/28 10:35:26;;;;;;;2.97;0.80;;;10.30;97.00;;;;;;5007992;28;20436;-78
2023/03/28 10:37:55;;;;;;;2.80;0.55;;;10.60;97.30;;;;;;5007333;28;20417;-78
2023/03/28 10:40:24;;;;;;;3.58;0.60;;;11.40;98.00;;;;;;5006717;28;20473;-78
2023/03/28 10:42:51;;;;;;;4.80;0.88;;;12.20;97.50;;;;;;5008056;28;20509;-78
2023/03/28 10:45:35;;;;;;;3.90;0.68;;;12.60;94.40;;;;;;5007475;28;20413;-78
2023/03/28 10:48:14;;;;;;;3.75;0.80;;;12.70;94.80;;;;;;5006886;28;20508;-78
2023/03/28 10:50:53;;;;;;;2.92;0.50;;;13.10;90.60;;;;;;5007653;28;20469;-78
2023/03/28 10:53:31;;;;;;;4.40;0.57;;;13.00;85.00;;;;;;5006350;28;20413;-78
2023/03/28 10:56:17;;;;;;;5.03;0.80;;;12.50;87.40;;;;;;5008136;28;20416;-78
2023/03/28 10:59:08;;;;;;;3.30;1.00;;;12.20;91.10;;;;;;5006679;28;20436;-78
2023/03/28 11:01:37;;;;;;;3.60;0.60;;;12.10;91.20;;;;;;5005450;28;20897;-78
2023/03/28 11:04:05;;;;;;;3.22;0.65;;;11.70;90.60;;;;;;5009146;28;20405;-78
2023/03/28 11:06:40;;;;;;;5.87;0.83;;;11.20;90.00;;;;;;5007946;28;20444;-78
2023/03/28 11:09:23;;;;;;;3.80;0.60;;;10.90;89.10;;;;;;5008079;28;21771;-77
2023/03/28 11:11:58;;;;;;;5.93;0.87;;;10.50;90.10;;;;;;5007905;28;20417;-77
2023/03/28 11:14:49;;;;;;;3.65;0.70;;;10.30;91.40;;;;;;5060088;28;20413;-77
2023/03/28 11:17:24;;;;;;;4.63;0.60;;;10.20;90.60;;;;;;5006991;28;21306;-77
2023/03/28 11:20:16;;;;;;;6.25;0.75;;;10.00;91.50;;;;;;5007966;28;20425;-77
2023/03/28 11:22:41;;;;;;;5.60;1.13;;;9.70;92.30;;;;;;4985136;28;20929;-77
2023/03/28 11:25:16;;;;;;;3.73;0.93;;;9.60;92.80;;;;;;5004299;28;20428;-77
2023/03/28 11:28:03;;;;;;;4.90;1.00;;;9.50;93.10;;;;;;4997218;28;20500;-77
2023/03/28 11:30:33;;;;;;;3.03;0.70;;;9.40;93.10;;;;;;5023630;28;20504;-78
2023/03/28 11:33:07;;;;;;;4.90;0.98;;;9.30;93.70;;;;;;5025688;28;20422;-77
2023/03/28 11:35:51;;;;;;;3.60;0.83;;;9.30;94.20;;;;;;5001258;28;20407;-77
2023/03/28 11:38:37;;;;;;;4.88;0.82;;;9.30;94.80;;;;;;5009500;28;20413;-77
2023/03/28 11:41:31;;;;;;;4.18;0.88;;;9.40;95.50;;;;;;5018157;28;20439;-78
2023/03/28 11:44:17;;;;;;;4.18;0.90;;;9.70;96.30;;;;;;4996469;28;20417;-78
2023/03/28 11:46:57;;;;;;;3.58;0.70;;;10.00;95.00;;;;;;5006087;28;20413;-78
2023/03/28 11:49:57;;;;;;;3.53;0.80;;;10.10;94.30;;;;;;5005511;28;20405;-77
2023/03/28 11:52:30;;;;;;;6.00;0.80;;;10.10;94.50;;;;;;5029625;28;20923;-77
2023/03/28 11:55:25;;;;;;;4.65;0.90;;;10.00;94.70;;;;;;5006733;28;20470;-77
2023/03/28 11:57:59;;;;;;;5.13;0.68;;;10.20;94.60;;;;;;5007751;28;20836;-78
2023/03/28 12:00:41;;;;;;;2.30;0.50;;;10.50;94.70;;;;;;5004585;28;21009;-78
2023/03/28 12:03:24;;;;;;;3.75;0.65;;;10.80;94.30;;;;;;5006807;28;20425;-77
2023/03/28 12:05:56;;;;;;;3.60;0.80;;;11.10;93.10;;;;;;5006603;28;20479;-78
2023/03/28 12:08:33;;;;;;;3.17;0.80;;;11.40;92.00;;;;;;5005706;28;20800;-78
2023/03/28 12:11:23;;;;;;;4.72;1.08;;;11.80;92.50;;;;;;5007542;28;20419;-78
2023/03/28 12:14:04;;;;;;;3.50;0.63;;;12.00;91.30;;;;;;5037121;28;20745;-77
2023/03/28 12:16:35;;;;;;;3.30;0.88;;;12.40;90.70;;;;;;5007169;28;20409;-78
2023/03/28 12:19:05;;;;;;;4.50;0.75;;;12.50;90.20;;;;;;5006519;28;20401;-78
2023/03/28 12:21:40;;;;;;;3.42;0.82;;;12.60;87.70;;;;;;5006369;28;20444;-77
2023/03/28 12:24:24;;;;;;;2.70;0.63;;;12.30;87.30;;;;;;5007622;28;20425;-78
2023/03/28 12:27:06;;;;;;;4.68;0.90;;;11.90;87.60;;;;;;5004220;28;20409;-78
2023/03/28 12:29:41;;;;;;;4.68;0.80;;;11.70;89.20;;;;;;4997024;28;20421;-77
2023/03/28 12:32:45;;;;;;;3.55;0.60;;;11.50;87.60;;;;;;5004247;28;20417;-78
2023/03/28 12:35:17;;;;;;;3.67;0.80;;;11.30;85.80;;;;;;5005256;28;20445;-78
2023/03/28 12:37:54;;;;;;;5.05;0.90;;;11.40;89.50;;;;;;5005328;28;20413;-77
2023/03/28 12:40:35;;;;;;;4.88;1.20;;;11.50;90.20;;;;;;5003767;28;20517;-78
2023/03/28 12:43:05;;;;;;;2.97;0.67;;;11.50;90.70;;;;;;5018664;28;20965;-77
2023/03/28 12:45:40;;;;;;;3.50;0.80;;;11.50;90.90;;;;;;5005820;28;20421;-78
2023/03/28 12:48:19;;;;;;;3.58;0.88;;;11.90;90.90;;;;;;5005228;28;20768;-78
2023/03/28 12:50:51;;;;;;;3.65;0.82;;;12.70;90.80;;;;;;5004651;28;20461;-78
2023/03/28 12:53:17;;;;;;;6.97;1.10;;;13.40;87.80;;;;;;5005530;28;20900;-77
2023/03/28 12:55:44;;;;;;;3.60;0.80;;;13.60;84.10;;;;;;5005561;28;20776;-78
2023/03/28 12:58:23;;;;;;;4.07;0.95;;;13.60;82.50;;;;;;5005637;28;20416;-77
2023/03/28 13:01:03;;;;;;;4.97;1.00;;;14.00;84.20;;;;;;5004075;28;20448;-78
2023/03/28 13:03:40;;;;;;;3.92;0.90;;;14.20;80.90;;;;;;5005240;28;20908;-77
2023/03/28 13:06:18;;;;;;;3.70;0.70;;;13.90;78.40;;;;;;5004448;28;20417;-77
2023/03/28 13:08:47;;;;;;;4.78;0.70;;;13.70;77.90;;;;;;5005438;28;20420;-78
2023/03/28 13:11:22;;;;;;;5.32;1.20;;;13.70;80.90;;;;;;4993562;28;20556;-78
2023/03/28 13:14:15;;;;;;;4.55;1.10;;;13.60;78.10;;;;;;5004312;28;20417;-78
2023/03/28 13:16:54;;;;;;;4.63;1.20;;;13.20;78.60;;;;;;5003999;28;20444;-77
2023/03/28 13:19:41;;;;;;;5.40;1.30;;;12.80;82.40;;;;;;4987374;28;20423;-77